createdAt,value
2022-08-09T00:01:10.273Z,17.10
2022-08-09T00:04:06.132Z,17.00
2022-08-09T00:06:34.431Z,17.00
2022-08-09T00:09:07.284Z,17.00
2022-08-09T00:12:02.623Z,17.00
2022-08-09T00:14:37.793Z,17.00
2022-08-09T00:17:10.404Z,16.90
2022-08-09T00:20:02.274Z,16.90
2022-08-09T00:22:36.320Z,16.80
2022-08-09T00:25:12.602Z,16.70
2022-08-09T00:27:44.659Z,16.70
2022-08-09T00:30:26.192Z,16.70
2022-08-09T00:32:59.174Z,16.70
2022-08-09T00:35:43.546Z,16.60
2022-08-09T00:38:16.120Z,16.60
2022-08-09T00:40:53.849Z,16.60
2022-08-09T00:44:13.330Z,16.60
2022-08-09T00:46:55.515Z,16.60
2022-08-09T00:49:10.993Z,16.60
2022-08-09T00:51:56.289Z,16.50
2022-08-09T00:54:35.154Z,16.50
2022-08-09T00:57:10.619Z,16.50
2022-08-09T00:59:47.043Z,16.40
2022-08-09T01:02:29.378Z,16.40
2022-08-09T01:05:05.319Z,16.30
2022-08-09T01:08:01.160Z,16.30
2022-08-09T01:10:42.511Z,16.30
2022-08-09T01:13:53.476Z,16.30
2022-08-09T01:16:35.225Z,16.20
2022-08-09T01:19:40.147Z,16.20
2022-08-09T01:22:34.476Z,16.20
2022-08-09T01:25:24.868Z,16.20
2022-08-09T01:27:58.494Z,16.10
2022-08-09T01:30:44.759Z,16.10
2022-08-09T01:33:28.054Z,16.10
2022-08-09T01:36:04.535Z,16.10
2022-08-09T01:38:38.661Z,16.10
2022-08-09T01:41:32.808Z,16.10
2022-08-09T01:44:06.535Z,16.10
2022-08-09T01:46:42.394Z,16.00
2022-08-09T01:49:24.307Z,15.90
2022-08-09T01:52:06.983Z,15.90
2022-08-09T01:54:48.809Z,15.80
2022-08-09T01:57:53.020Z,15.70
2022-08-09T02:00:34.654Z,15.70
2022-08-09T02:03:11.357Z,15.70
2022-08-09T02:06:03.164Z,15.70
2022-08-09T02:08:58.731Z,15.60
2022-08-09T02:11:42.191Z,15.70
2022-08-09T02:14:26.506Z,15.60
2022-08-09T02:17:30.841Z,15.60
2022-08-09T02:19:51.250Z,15.60
2022-08-09T02:22:35.890Z,15.50
2022-08-09T02:25:17.099Z,15.60
2022-08-09T02:28:04.204Z,15.60
2022-08-09T02:30:46.530Z,15.60
2022-08-09T02:33:37.769Z,15.60
2022-08-09T02:36:16.905Z,15.60
2022-08-09T02:38:54.151Z,15.60
2022-08-09T02:41:34.983Z,15.60
2022-08-09T02:44:29.072Z,15.60
2022-08-09T02:47:13.803Z,15.60
2022-08-09T02:50:01.240Z,15.50
2022-08-09T02:52:56.513Z,15.40
2022-08-09T02:55:46.385Z,15.40
2022-08-09T02:58:35.661Z,15.40
2022-08-09T03:01:11.087Z,15.30
2022-08-09T03:04:17.873Z,15.30
2022-08-09T03:06:42.558Z,15.30
2022-08-09T03:09:18.033Z,15.30
2022-08-09T03:12:05.792Z,15.30
2022-08-09T03:14:42.289Z,15.30
2022-08-09T03:17:16.654Z,15.30
2022-08-09T03:20:00.099Z,15.30
2022-08-09T03:22:41.855Z,15.30
2022-08-09T03:25:26.329Z,15.30
2022-08-09T03:28:11.306Z,15.30
2022-08-09T03:30:44.056Z,15.20
2022-08-09T03:33:22.113Z,15.20
2022-08-09T03:36:13.287Z,15.20
2022-08-09T03:38:46.508Z,15.20
2022-08-09T03:41:18.686Z,15.20
2022-08-09T03:44:02.981Z,15.20
2022-08-09T03:46:40.873Z,15.20
2022-08-09T03:49:19.238Z,15.10
2022-08-09T03:52:00.084Z,15.10
2022-08-09T03:54:38.414Z,15.10
2022-08-09T03:57:20.562Z,15.10
2022-08-09T03:59:56.118Z,15.10
2022-08-09T04:02:33.642Z,15.10
2022-08-09T04:05:17.117Z,15.10
2022-08-09T04:07:58.999Z,15.10
2022-08-09T04:10:30.791Z,15.10
2022-08-09T04:13:09.440Z,15.10
2022-08-09T04:16:19.474Z,15.10
2022-08-09T04:18:36.817Z,15.10
2022-08-09T04:21:10.879Z,15.10
2022-08-09T04:23:53.922Z,15.10
2022-08-09T04:26:35.302Z,15.10
2022-08-09T04:29:15.462Z,15.10
2022-08-09T04:31:47.750Z,15.10
2022-08-09T04:34:30.661Z,15.10
2022-08-09T04:37:03.982Z,15.10
2022-08-09T04:39:40.547Z,15.10
2022-08-09T04:42:15.936Z,15.10
2022-08-09T04:44:50.442Z,15.10
2022-08-09T04:47:26.659Z,15.10
2022-08-09T04:50:17.077Z,15.20
2022-08-09T04:52:51.546Z,15.20
2022-08-09T04:55:23.271Z,15.20
2022-08-09T04:58:01.694Z,15.30
2022-08-09T05:00:41.626Z,15.30
2022-08-09T05:03:40.209Z,15.40
2022-08-09T05:06:07.484Z,15.40
2022-08-09T05:08:39.506Z,15.40
2022-08-09T05:11:16.071Z,15.40
2022-08-09T05:13:48.569Z,15.50
2022-08-09T05:16:20.520Z,15.60
2022-08-09T05:19:03.585Z,15.60
2022-08-09T05:21:47.014Z,15.70
2022-08-09T05:24:24.897Z,15.70
2022-08-09T05:26:56.819Z,15.80
2022-08-09T05:29:31.510Z,15.90
2022-08-09T05:32:07.468Z,15.90
2022-08-09T05:34:45.653Z,16.00
2022-08-09T05:37:18.320Z,16.00
2022-08-09T05:39:50.263Z,16.10
2022-08-09T05:42:27.905Z,16.10
2022-08-09T05:45:01.382Z,16.20
2022-08-09T05:47:33.616Z,16.20
2022-08-09T05:50:25.157Z,16.30
2022-08-09T05:52:57.623Z,16.40
2022-08-09T05:55:31.339Z,16.50
2022-08-09T05:58:04.178Z,16.60
2022-08-09T06:00:39.066Z,16.80
2022-08-09T06:03:11.090Z,17.00
2022-08-09T06:06:04.680Z,17.10
2022-08-09T06:08:37.990Z,17.20
2022-08-09T06:11:16.855Z,17.40
2022-08-09T06:13:49.573Z,17.50
2022-08-09T06:16:23.338Z,17.60
2022-08-09T06:18:55.534Z,17.70
2022-08-09T06:21:27.435Z,17.70
2022-08-09T06:24:01.372Z,17.90
2022-08-09T06:26:34.408Z,17.90
2022-08-09T06:29:06.510Z,18.00
2022-08-09T06:31:40.187Z,18.00
2022-08-09T06:34:30.796Z,18.00
2022-08-09T06:37:02.703Z,18.10
2022-08-09T06:39:48.775Z,18.20
2022-08-09T06:42:30.544Z,18.30
2022-08-09T06:46:04.241Z,18.50
2022-08-09T06:47:58.045Z,18.50
2022-08-09T06:50:32.842Z,18.70
2022-08-09T06:53:04.897Z,18.80
2022-08-09T06:55:36.646Z,19.00
2022-08-09T06:58:28.478Z,19.10
2022-08-09T07:01:01.274Z,19.30
2022-08-09T07:03:39.346Z,19.40
2022-08-09T07:06:25.426Z,19.50
2022-08-09T07:08:57.358Z,19.60
2022-08-09T07:11:45.719Z,19.80
2022-08-09T07:14:26.665Z,19.90
2022-08-09T07:16:59.105Z,20.00
2022-08-09T07:19:30.891Z,20.10
2022-08-09T07:22:02.802Z,20.10
2022-08-09T07:24:40.281Z,20.20
2022-08-09T07:27:33.595Z,20.30
2022-08-09T07:30:06.953Z,20.40
2022-08-09T07:32:39.912Z,20.60
2022-08-09T07:35:14.850Z,20.60
2022-08-09T07:37:49.183Z,20.70
2022-08-09T07:40:26.821Z,20.80
2022-08-09T07:43:00.370Z,20.90
2022-08-09T07:45:38.169Z,21.00
2022-08-09T07:48:25.786Z,21.20
2022-08-09T07:51:09.015Z,21.30
2022-08-09T07:54:06.796Z,21.40
2022-08-09T07:56:49.811Z,21.60
2022-08-09T07:59:34.810Z,21.70
2022-08-09T08:02:19.401Z,21.70
2022-08-09T08:04:53.702Z,21.80
2022-08-09T08:08:44.321Z,21.90
2022-08-09T08:10:18.803Z,21.90
2022-08-09T08:12:50.583Z,22.10
2022-08-09T08:15:23.125Z,22.10
2022-08-09T08:17:58.663Z,22.30
2022-08-09T08:20:32.749Z,22.40
2022-08-09T08:23:16.394Z,22.50
2022-08-09T08:25:50.154Z,22.60
2022-08-09T08:28:38.066Z,22.80
2022-08-09T08:31:14.945Z,22.80
2022-08-09T08:33:53.882Z,22.90
2022-08-09T08:36:28.790Z,23.00
2022-08-09T08:39:02.233Z,23.10
2022-08-09T08:41:42.076Z,23.20
2022-08-09T08:44:28.966Z,23.20
2022-08-09T08:47:05.233Z,23.40
2022-08-09T08:49:48.038Z,23.50
2022-08-09T08:52:58.547Z,23.50
2022-08-09T08:55:23.479Z,23.60
2022-08-09T08:57:58.325Z,23.90
2022-08-09T09:00:34.781Z,24.00
2022-08-09T09:03:08.854Z,24.20
2022-08-09T09:06:00.680Z,24.60
2022-08-09T09:08:40.782Z,25.20
2022-08-09T09:11:17.676Z,26.00
2022-08-09T09:13:58.499Z,27.20
2022-08-09T09:16:34.400Z,28.50
2022-08-09T09:22:07.640Z,29.90
2022-08-09T09:24:45.708Z,30.60
2022-08-09T09:28:04.273Z,31.00
2022-08-09T09:30:27.392Z,31.40
2022-08-09T09:33:16.984Z,31.30
2022-08-09T09:36:11.713Z,31.50
2022-08-09T09:38:58.117Z,32.00
2022-08-09T09:41:33.076Z,31.90
2022-08-09T09:44:15.617Z,32.00
2022-08-09T09:47:21.343Z,31.30
2022-08-09T09:50:14.429Z,30.60
2022-08-09T09:52:53.909Z,30.80
2022-08-09T09:55:32.351Z,31.20
2022-08-09T09:58:18.800Z,31.40
2022-08-09T10:00:58.878Z,31.20
2022-08-09T10:03:57.216Z,31.80
2022-08-09T10:06:42.739Z,32.00
2022-08-09T10:09:22.592Z,32.80
2022-08-09T10:12:14.635Z,33.00
2022-08-09T10:15:17.494Z,33.10
2022-08-09T10:18:11.678Z,33.90
2022-08-09T10:20:44.906Z,34.40
2022-08-09T10:23:21.214Z,34.70
2022-08-09T10:26:07.417Z,34.10
2022-08-09T10:28:49.021Z,34.10
2022-08-09T10:34:33.810Z,34.40
2022-08-09T10:37:09.766Z,34.50
2022-08-09T10:39:48.898Z,34.40
2022-08-09T10:42:27.179Z,34.30
2022-08-09T10:45:12.094Z,34.70
2022-08-09T10:48:26.545Z,35.10
2022-08-09T10:51:21.191Z,35.20
2022-08-09T10:54:12.383Z,35.40
2022-08-09T10:56:45.090Z,34.90
2022-08-09T10:59:23.323Z,33.80
2022-08-09T11:03:15.302Z,34.10
2022-08-09T11:05:24.860Z,34.60
2022-08-09T11:08:47.974Z,34.90
2022-08-09T11:11:25.057Z,34.70
2022-08-09T11:14:35.386Z,34.80
2022-08-09T11:17:19.330Z,34.30
2022-08-09T11:20:10.125Z,34.30
2022-08-09T11:22:55.386Z,34.60
2022-08-09T11:25:44.533Z,34.30
2022-08-09T11:28:53.940Z,34.60
2022-08-09T11:31:49.681Z,34.20
2022-08-09T11:34:42.766Z,32.50
2022-08-09T11:37:31.206Z,31.70
2022-08-09T11:40:17.839Z,30.40
2022-08-09T11:42:55.303Z,29.60
2022-08-09T11:45:42.646Z,29.60
2022-08-09T11:48:25.339Z,29.30
2022-08-09T11:52:49.207Z,29.30
2022-08-09T11:54:27.971Z,29.20
2022-08-09T11:57:59.929Z,29.10
2022-08-09T12:00:32.978Z,28.70
2022-08-09T12:03:55.142Z,28.50
2022-08-09T12:06:13.027Z,28.20
2022-08-09T12:08:52.988Z,28.40
2022-08-09T12:11:27.672Z,28.40
2022-08-09T12:14:36.722Z,28.40
2022-08-09T12:16:59.860Z,28.40
2022-08-09T12:19:32.771Z,28.10
2022-08-09T12:22:07.783Z,28.00
2022-08-09T12:24:42.210Z,27.90
2022-08-09T12:29:14.069Z,27.90
2022-08-09T12:30:36.120Z,27.80
2022-08-09T12:33:05.818Z,27.70
2022-08-09T12:35:41.078Z,27.90
2022-08-09T12:38:37.875Z,28.10
2022-08-09T12:41:10.688Z,28.00
2022-08-09T12:44:04.404Z,28.00
2022-08-09T12:46:36.882Z,28.00
2022-08-09T12:49:09.157Z,27.70
2022-08-09T12:52:00.729Z,27.80
2022-08-09T12:56:10.831Z,27.90
2022-08-09T12:57:46.996Z,27.90
2022-08-09T13:00:34.511Z,28.00
2022-08-09T13:03:06.480Z,27.80
2022-08-09T13:06:14.286Z,27.80
2022-08-09T13:09:20.249Z,27.80
2022-08-09T13:12:01.844Z,27.90
2022-08-09T13:14:41.065Z,28.00
2022-08-09T13:17:44.518Z,28.00
2022-08-09T13:20:18.966Z,28.00
2022-08-09T13:23:05.992Z,28.10
2022-08-09T13:25:54.357Z,28.20
2022-08-09T13:28:34.287Z,28.40
2022-08-09T13:32:17.842Z,28.20
2022-08-09T13:34:03.575Z,28.00
2022-08-09T13:36:40.991Z,27.80
2022-08-09T13:41:20.893Z,27.90
2022-08-09T13:42:17.915Z,28.10
2022-08-09T13:44:50.122Z,28.20
2022-08-09T13:47:31.051Z,28.20
2022-08-09T13:50:18.159Z,28.00
2022-08-09T13:53:01.635Z,27.80
2022-08-09T13:55:35.319Z,27.70
2022-08-09T13:58:11.643Z,27.60
2022-08-09T14:00:49.813Z,27.80
2022-08-09T14:04:02.307Z,28.00
2022-08-09T14:06:25.745Z,28.20
2022-08-09T14:08:58.575Z,27.90
2022-08-09T14:11:30.347Z,27.70
2022-08-09T14:14:23.158Z,27.70
2022-08-09T14:16:54.481Z,27.80
2022-08-09T14:19:26.505Z,27.90
2022-08-09T14:22:05.339Z,27.80
2022-08-09T14:24:37.089Z,27.80
2022-08-09T14:27:20.471Z,27.70
2022-08-09T14:30:37.434Z,27.70
2022-08-09T14:32:44.320Z,27.60
2022-08-09T14:35:16.218Z,27.60
2022-08-09T14:38:01.840Z,27.50
2022-08-09T14:41:00.530Z,27.70
2022-08-09T14:43:26.124Z,27.60
2022-08-09T14:46:56.091Z,27.60
2022-08-09T14:49:10.501Z,27.60
2022-08-09T14:51:42.792Z,27.30
2022-08-09T14:54:16.722Z,27.30
2022-08-09T14:56:59.015Z,27.50
2022-08-09T14:59:31.120Z,27.50
2022-08-09T15:02:02.899Z,27.40
2022-08-09T15:04:34.685Z,27.40
2022-08-09T15:07:10.028Z,27.40
2022-08-09T15:10:07.336Z,27.20
2022-08-09T15:12:34.588Z,27.10
2022-08-09T15:15:08.627Z,26.90
2022-08-09T15:17:41.822Z,27.00
2022-08-09T15:20:15.419Z,27.10
2022-08-09T15:24:03.689Z,27.00
2022-08-09T15:25:58.945Z,26.90
2022-08-09T15:28:33.417Z,26.80
2022-08-09T15:31:13.233Z,26.80
2022-08-09T15:34:18.162Z,26.80
2022-08-09T15:36:40.667Z,26.90
2022-08-09T15:39:20.594Z,26.50
2022-08-09T15:41:52.491Z,26.10
2022-08-09T15:44:26.066Z,26.10
2022-08-09T15:47:05.272Z,26.40
2022-08-09T15:49:37.087Z,26.80
2022-08-09T15:52:09.198Z,26.80
2022-08-09T15:54:49.209Z,26.70
2022-08-09T15:57:35.662Z,26.60
2022-08-09T16:00:25.625Z,26.60
2022-08-09T16:02:58.692Z,26.60
2022-08-09T16:05:47.684Z,26.60
2022-08-09T16:08:29.529Z,26.50
2022-08-09T16:11:03.759Z,26.60
2022-08-09T16:14:04.216Z,26.60
2022-08-09T16:16:31.277Z,26.50
2022-08-09T16:19:03.603Z,26.40
2022-08-09T16:21:36.732Z,26.30
2022-08-09T16:24:20.093Z,26.40
2022-08-09T16:27:05.299Z,26.40
2022-08-09T16:29:49.967Z,26.40
2022-08-09T16:32:35.118Z,26.40
2022-08-09T16:35:07.487Z,26.60
2022-08-09T16:37:54.838Z,26.70
2022-08-09T16:40:39.815Z,26.70
2022-08-09T16:43:12.565Z,26.80
2022-08-09T16:45:46.207Z,26.70
2022-08-09T16:48:41.092Z,26.60
2022-08-09T16:51:14.141Z,26.60
2022-08-09T16:54:22.428Z,26.50
2022-08-09T16:56:49.231Z,26.40
2022-08-09T16:59:21.343Z,26.20
2022-08-09T17:01:53.289Z,26.10
2022-08-09T17:04:28.063Z,26.20
2022-08-09T17:08:40.908Z,26.30
2022-08-09T17:09:52.063Z,26.30
2022-08-09T17:12:34.108Z,26.30
2022-08-09T17:15:17.989Z,26.20
2022-08-09T17:18:00.762Z,26.10
2022-08-09T17:20:38.866Z,26.00
2022-08-09T17:23:14.922Z,26.00
2022-08-09T17:25:52.792Z,25.90
2022-08-09T17:28:25.102Z,25.90
2022-08-09T17:30:58.753Z,25.80
2022-08-09T17:33:35.792Z,25.60
2022-08-09T17:36:11.025Z,25.60
2022-08-09T17:38:57.454Z,25.60
2022-08-09T17:41:38.813Z,25.60
2022-08-09T17:44:41.812Z,25.60
2022-08-09T17:47:05.979Z,25.50
2022-08-09T17:49:51.267Z,25.40
2022-08-09T17:52:34.070Z,25.20
2022-08-09T17:55:06.583Z,25.10
2022-08-09T17:58:02.899Z,25.00
2022-08-09T18:00:33.493Z,24.90
2022-08-09T18:03:18.612Z,24.70
2022-08-09T18:05:53.351Z,24.50
2022-08-09T18:08:27.459Z,24.40
2022-08-09T18:11:01.846Z,24.30
2022-08-09T18:13:53.717Z,24.10
2022-08-09T18:16:30.273Z,24.00
2022-08-09T18:19:04.241Z,23.90
2022-08-09T18:21:54.756Z,23.80
2022-08-09T18:24:27.691Z,23.60
2022-08-09T18:27:01.055Z,23.50
2022-08-09T18:30:40.887Z,23.30
2022-08-09T18:32:24.935Z,23.10
2022-08-09T18:34:58.563Z,23.00
2022-08-09T18:37:48.173Z,22.90
2022-08-09T18:40:26.897Z,22.80
2022-08-09T18:42:58.939Z,22.60
2022-08-09T18:46:46.542Z,22.50
2022-08-09T18:48:30.113Z,22.40
2022-08-09T18:51:04.654Z,22.20
2022-08-09T18:53:41.462Z,22.10
2022-08-09T18:56:29.523Z,22.00
2022-08-09T18:59:01.796Z,21.90
2022-08-09T19:01:43.557Z,21.70
2022-08-09T19:04:18.110Z,21.60
2022-08-09T19:07:06.656Z,21.50
2022-08-09T19:10:15.691Z,21.50
2022-08-09T19:12:31.893Z,21.40
2022-08-09T19:15:08.788Z,21.30
2022-08-09T19:17:54.929Z,21.30
2022-08-09T19:20:34.260Z,21.20
2022-08-09T19:23:16.687Z,21.10
2022-08-09T19:26:04.611Z,21.00
2022-08-09T19:28:38.229Z,20.90
2022-08-09T19:31:14.529Z,20.80
2022-08-09T19:33:48.544Z,20.80
2022-08-09T19:36:23.207Z,20.80
2022-08-09T19:39:03.589Z,20.80
2022-08-09T19:41:37.402Z,20.80
2022-08-09T19:44:14.224Z,20.80
2022-08-09T19:46:50.963Z,20.80
2022-08-09T19:50:07.864Z,20.80
2022-08-09T19:52:18.225Z,20.80
2022-08-09T19:54:50.110Z,20.70
2022-08-09T19:57:25.723Z,20.70
2022-08-09T20:00:06.385Z,20.70
2022-08-09T20:04:11.318Z,20.60
2022-08-09T20:05:46.042Z,20.60
2022-08-09T20:08:33.294Z,20.60
2022-08-09T20:11:06.571Z,20.50
2022-08-09T20:13:38.754Z,20.50
2022-08-09T20:16:35.050Z,20.40
2022-08-09T20:19:42.516Z,20.40
2022-08-09T20:21:57.503Z,20.30
2022-08-09T20:24:34.230Z,20.20
2022-08-09T20:27:08.423Z,20.10
2022-08-09T20:29:40.662Z,20.00
2022-08-09T20:32:31.081Z,20.00
2022-08-09T20:35:06.531Z,20.00
2022-08-09T20:38:22.043Z,20.00
2022-08-09T20:40:30.738Z,20.00
2022-08-09T20:43:18.135Z,19.90
2022-08-09T20:46:00.038Z,19.80
2022-08-09T20:48:46.167Z,19.80
2022-08-09T20:51:25.817Z,19.70
2022-08-09T20:53:57.622Z,19.70
2022-08-09T20:56:29.352Z,19.60
2022-08-09T20:59:02.777Z,19.50
2022-08-09T21:01:51.542Z,19.50
2022-08-09T21:05:49.737Z,19.50
2022-08-09T21:07:17.298Z,19.50
2022-08-09T21:09:56.820Z,19.50
2022-08-09T21:15:34.214Z,19.40
2022-08-09T21:18:22.454Z,19.30
2022-08-09T21:20:57.699Z,19.20
2022-08-09T21:23:47.849Z,19.20
2022-08-09T21:26:22.216Z,19.20
2022-08-09T21:28:57.097Z,19.10
2022-08-09T21:31:49.059Z,19.00
2022-08-09T21:34:29.232Z,19.00
2022-08-09T21:37:01.531Z,19.00
2022-08-09T21:39:41.792Z,18.90
2022-08-09T21:42:14.411Z,18.90
2022-08-09T21:44:46.501Z,18.80
2022-08-09T21:47:20.161Z,18.70
2022-08-09T21:49:52.245Z,18.70
2022-08-09T21:52:24.059Z,18.70
2022-08-09T21:55:03.357Z,18.60
2022-08-09T21:57:59.421Z,18.70
2022-08-09T22:00:32.330Z,18.60
2022-08-09T22:03:19.205Z,18.60
2022-08-09T22:05:51.808Z,18.50
2022-08-09T22:08:26.998Z,18.50
2022-08-09T22:11:00.276Z,18.60
2022-08-09T22:13:50.453Z,18.50
2022-08-09T22:16:23.057Z,18.50
2022-08-09T22:18:55.823Z,18.50
2022-08-09T22:21:45.139Z,18.50
2022-08-09T22:24:24.780Z,18.50
2022-08-09T22:26:56.842Z,18.50
2022-08-09T22:29:34.461Z,18.40
2022-08-09T22:32:29.700Z,18.40
2022-08-09T22:35:06.445Z,18.40
2022-08-09T22:37:40.319Z,18.40
2022-08-09T22:40:18.157Z,18.40
2022-08-09T22:42:52.022Z,18.30
2022-08-09T22:48:10.961Z,18.30
2022-08-09T22:48:35.389Z,18.30
2022-08-09T22:51:10.707Z,18.20
2022-08-09T22:54:02.953Z,18.20
2022-08-09T22:56:35.229Z,18.20
2022-08-09T22:59:55.675Z,18.10
2022-08-09T23:01:59.585Z,18.10
2022-08-09T23:04:32.828Z,18.10
2022-08-09T23:08:23.173Z,18.00
2022-08-09T23:10:15.086Z,18.00
2022-08-09T23:12:47.378Z,18.00
2022-08-09T23:15:19.123Z,17.90
2022-08-09T23:17:50.938Z,17.90
2022-08-09T23:20:23.833Z,17.90
2022-08-09T23:22:55.740Z,17.80
2022-08-09T23:25:27.627Z,17.80
2022-08-09T23:28:14.643Z,17.70
2022-08-09T23:30:51.249Z,17.70
2022-08-09T23:33:24.287Z,17.70
2022-08-09T23:36:06.603Z,17.70
2022-08-09T23:38:48.492Z,17.70
2022-08-09T23:41:28.953Z,17.60
2022-08-09T23:44:02.493Z,17.60
2022-08-09T23:46:34.556Z,17.50
2022-08-09T23:49:06.398Z,17.50
2022-08-09T23:51:38.159Z,17.50
2022-08-09T23:54:10.058Z,17.40
2022-08-09T23:56:54.058Z,17.40
2022-08-09T23:59:47.098Z,17.30
